createdAt,value
2023-04-02T00:00:21.129Z,86.14
2023-04-02T00:02:56.585Z,86.65
2023-04-02T00:05:50.355Z,86.70
2023-04-02T00:08:30.575Z,87.12
2023-04-02T00:11:01.221Z,87.00
2023-04-02T00:13:36.364Z,87.26
2023-04-02T00:16:06.863Z,86.50
2023-04-02T00:18:41.111Z,86.00
2023-04-02T00:21:13.972Z,86.21
2023-04-02T00:23:43.825Z,85.95
2023-04-02T00:26:31.684Z,86.09
2023-04-02T00:29:00.348Z,86.27
2023-04-02T00:31:28.565Z,86.09
2023-04-02T00:33:56.929Z,86.05
2023-04-02T00:36:29.952Z,86.08
2023-04-02T00:39:00.566Z,85.84
2023-04-02T00:41:32.253Z,86.04
2023-04-02T00:44:01.430Z,86.08
2023-04-02T00:46:34.727Z,86.32
2023-04-02T00:49:09.023Z,86.33
2023-04-02T00:51:41.705Z,86.44
2023-04-02T00:54:15.895Z,86.15
2023-04-02T00:56:47.945Z,86.25
2023-04-02T00:59:23.684Z,85.52
2023-04-02T01:01:55.115Z,85.27
2023-04-02T01:04:34.026Z,84.87
2023-04-02T01:07:06.422Z,85.02
2023-04-02T01:09:59.737Z,84.91
2023-04-02T01:12:41.579Z,84.84
2023-04-02T01:15:17.600Z,84.92
2023-04-02T01:18:31.208Z,85.05
2023-04-02T01:21:22.988Z,85.06
2023-04-02T01:23:59.676Z,85.25
2023-04-02T01:26:45.669Z,85.65
2023-04-02T01:29:17.455Z,85.49
2023-04-02T01:31:47.002Z,85.47
2023-04-02T01:34:17.965Z,85.48
2023-04-02T01:36:55.700Z,84.66
2023-04-02T01:39:34.609Z,84.34
2023-04-02T01:42:10.318Z,84.26
2023-04-02T01:44:43.919Z,84.38
2023-04-02T01:47:14.160Z,84.91
2023-04-02T01:49:43.982Z,84.87
2023-04-02T01:52:17.266Z,84.55
2023-04-02T01:54:47.200Z,84.53
2023-04-02T01:57:15.516Z,84.43
2023-04-02T01:59:45.862Z,84.77
2023-04-02T02:02:15.167Z,84.98
2023-04-02T02:04:45.083Z,84.68
2023-04-02T02:07:15.872Z,84.98
2023-04-02T02:09:47.818Z,84.64
2023-04-02T02:12:16.863Z,85.30
2023-04-02T02:14:52.197Z,85.40
2023-04-02T02:17:28.663Z,85.15
2023-04-02T02:20:00.042Z,85.26
2023-04-02T02:22:31.532Z,84.93
2023-04-02T02:25:02.848Z,84.62
2023-04-02T02:27:48.997Z,84.49
2023-04-02T02:30:22.986Z,84.00
2023-04-02T02:32:56.898Z,84.09
2023-04-02T02:35:29.819Z,84.15
2023-04-02T02:38:07.515Z,83.90
2023-04-02T02:40:41.844Z,83.69
2023-04-02T02:43:13.948Z,83.48
2023-04-02T02:45:45.315Z,83.33
2023-04-02T02:48:16.333Z,83.52
2023-04-02T02:50:45.816Z,83.02
2023-04-02T02:53:20.074Z,83.21
2023-04-02T02:55:51.504Z,83.17
2023-04-02T02:58:27.549Z,83.50
2023-04-02T03:01:13.738Z,83.04
2023-04-02T03:03:44.891Z,82.61
2023-04-02T03:06:20.650Z,82.68
2023-04-02T03:09:00.889Z,83.01
2023-04-02T03:11:40.162Z,82.48
2023-04-02T03:14:19.794Z,82.72
2023-04-02T03:16:52.641Z,82.09
2023-04-02T03:19:29.809Z,81.87
2023-04-02T03:22:05.235Z,81.81
2023-04-02T03:24:46.649Z,81.84
2023-04-02T03:27:19.551Z,81.76
2023-04-02T03:29:58.779Z,81.78
2023-04-02T03:32:31.636Z,82.28
2023-04-02T03:35:04.391Z,81.99
2023-04-02T03:37:35.715Z,81.57
2023-04-02T03:40:09.825Z,81.74
2023-04-02T03:42:43.572Z,81.52
2023-04-02T03:45:17.423Z,80.19
2023-04-02T03:47:54.084Z,80.86
2023-04-02T03:50:27.449Z,80.46
2023-04-02T03:52:59.001Z,80.32
2023-04-02T03:55:31.262Z,80.53
2023-04-02T03:58:03.921Z,80.52
2023-04-02T04:00:38.446Z,80.93
2023-04-02T04:03:15.394Z,80.11
2023-04-02T04:05:47.455Z,79.21
2023-04-02T04:08:19.415Z,79.90
2023-04-02T04:10:52.530Z,79.40
2023-04-02T04:13:29.081Z,80.11
2023-04-02T04:16:02.180Z,79.76
2023-04-02T04:18:37.801Z,79.36
2023-04-02T04:21:16.987Z,79.17
2023-04-02T04:23:51.242Z,79.59
2023-04-02T04:26:27.068Z,79.97
2023-04-02T04:29:09.741Z,80.35
2023-04-02T04:31:47.239Z,80.73
2023-04-02T04:34:18.568Z,80.31
2023-04-02T04:36:54.811Z,80.25
2023-04-02T04:39:37.676Z,80.77
2023-04-02T04:42:08.102Z,80.85
2023-04-02T04:44:44.538Z,80.47
2023-04-02T04:47:20.003Z,80.69
2023-04-02T04:49:55.264Z,80.28
2023-04-02T04:52:26.879Z,80.32
2023-04-02T04:54:54.939Z,80.52
2023-04-02T04:57:34.818Z,80.47
2023-04-02T05:00:15.721Z,80.52
2023-04-02T05:02:50.510Z,80.21
2023-04-02T05:05:23.494Z,80.46
2023-04-02T05:07:59.675Z,80.21
2023-04-02T05:10:35.470Z,80.32
2023-04-02T05:13:08.387Z,80.18
2023-04-02T05:15:42.311Z,80.40
2023-04-02T05:18:21.759Z,80.71
2023-04-02T05:20:55.515Z,80.21
2023-04-02T05:23:28.102Z,80.05
2023-04-02T05:26:06.631Z,79.39
2023-04-02T05:28:41.902Z,78.96
2023-04-02T05:31:17.473Z,79.33
2023-04-02T05:33:47.489Z,79.19
2023-04-02T05:36:23.555Z,78.69
2023-04-02T05:38:57.371Z,78.44
2023-04-02T05:41:38.274Z,78.00
2023-04-02T05:44:09.574Z,78.58
2023-04-02T05:46:47.027Z,78.45
2023-04-02T05:49:22.660Z,77.32
2023-04-02T05:51:57.755Z,76.70
2023-04-02T05:54:31.379Z,76.52
2023-04-02T05:57:04.584Z,76.29
2023-04-02T05:59:38.577Z,76.71
2023-04-02T06:02:17.987Z,76.28
2023-04-02T06:04:51.359Z,75.04
2023-04-02T06:07:24.224Z,75.36
2023-04-02T06:10:03.359Z,74.54
2023-04-02T06:12:41.987Z,74.36
2023-04-02T06:15:14.817Z,73.79
2023-04-02T06:17:47.921Z,73.68
2023-04-02T06:20:18.769Z,73.82
2023-04-02T06:22:52.323Z,73.23
2023-04-02T06:25:25.279Z,73.18
2023-04-02T06:27:57.810Z,73.69
2023-04-02T06:30:29.381Z,73.12
2023-04-02T06:32:57.750Z,72.95
2023-04-02T06:35:26.705Z,72.28
2023-04-02T06:38:05.097Z,72.61
2023-04-02T06:40:41.645Z,72.29
2023-04-02T06:43:18.880Z,72.15
2023-04-02T06:46:03.088Z,72.07
2023-04-02T06:48:38.795Z,71.31
2023-04-02T06:51:10.171Z,71.85
2023-04-02T06:53:44.309Z,71.46
2023-04-02T06:56:26.973Z,70.66
2023-04-02T06:58:54.937Z,71.30
2023-04-02T07:01:27.918Z,70.97
2023-04-02T07:03:56.860Z,70.45
2023-04-02T07:06:30.482Z,69.68
2023-04-02T07:09:02.910Z,70.24
2023-04-02T07:11:30.767Z,69.62
2023-04-02T07:14:02.280Z,69.48
2023-04-02T07:16:32.148Z,69.83
2023-04-02T07:19:01.889Z,69.13
2023-04-02T07:21:32.996Z,68.37
2023-04-02T07:24:02.290Z,68.07
2023-04-02T07:26:30.143Z,68.06
2023-04-02T07:28:58.191Z,68.30
2023-04-02T07:31:27.596Z,67.94
2023-04-02T07:33:58.198Z,68.23
2023-04-02T07:36:26.352Z,67.84
2023-04-02T07:38:54.225Z,68.83
2023-04-02T07:41:23.789Z,67.73
2023-04-02T07:43:51.672Z,67.81
2023-04-02T07:46:20.269Z,67.84
2023-04-02T07:48:48.643Z,66.86
2023-04-02T07:51:18.862Z,66.72
2023-04-02T07:53:50.071Z,67.32
2023-04-02T07:56:20.468Z,66.34
2023-04-02T07:58:49.994Z,65.57
2023-04-02T08:01:20.964Z,65.28
2023-04-02T08:03:49.457Z,65.58
2023-04-02T08:06:18.075Z,64.60
2023-04-02T08:08:45.952Z,64.21
2023-04-02T08:11:13.709Z,64.11
2023-04-02T08:13:41.506Z,63.47
2023-04-02T08:16:10.807Z,63.35
2023-04-02T08:18:38.665Z,63.19
2023-04-02T08:21:07.783Z,62.36
2023-04-02T08:23:36.258Z,62.84
2023-04-02T08:26:04.336Z,62.86
2023-04-02T08:28:32.044Z,63.21
2023-04-02T08:30:59.992Z,61.83
2023-04-02T08:33:29.138Z,62.64
2023-04-02T08:35:57.018Z,62.23
2023-04-02T08:38:24.823Z,62.02
2023-04-02T08:40:55.901Z,62.54
2023-04-02T08:43:38.756Z,61.92
2023-04-02T08:46:12.790Z,61.50
2023-04-02T08:48:45.134Z,60.76
2023-04-02T08:51:23.764Z,61.17
2023-04-02T08:53:52.573Z,60.33
2023-04-02T08:56:25.272Z,61.11
2023-04-02T08:58:56.088Z,60.58
2023-04-02T09:01:35.677Z,60.10
2023-04-02T09:04:14.377Z,60.00
2023-04-02T09:06:43.847Z,60.35
2023-04-02T09:09:13.922Z,59.80
2023-04-02T09:11:51.987Z,59.62
2023-04-02T09:14:21.541Z,59.13
2023-04-02T09:16:52.152Z,59.21
2023-04-02T09:19:24.542Z,58.17
2023-04-02T09:22:08.971Z,56.78
2023-04-02T09:24:37.779Z,57.98
2023-04-02T09:27:17.291Z,56.67
2023-04-02T09:29:46.368Z,56.93
2023-04-02T09:32:41.309Z,55.36
2023-04-02T09:35:25.480Z,55.45
2023-04-02T09:38:18.223Z,55.02
2023-04-02T09:40:49.992Z,56.66
2023-04-02T09:43:19.926Z,56.26
2023-04-02T09:45:58.543Z,54.85
2023-04-02T09:48:30.405Z,54.08
2023-04-02T09:51:14.292Z,53.49
2023-04-02T09:53:44.695Z,53.78
2023-04-02T09:56:19.129Z,52.94
2023-04-02T09:59:03.284Z,53.87
2023-04-02T10:01:33.417Z,53.92
2023-04-02T10:04:03.506Z,53.28
2023-04-02T10:06:35.189Z,53.10
2023-04-02T10:09:22.479Z,52.25
2023-04-02T10:11:52.597Z,52.21
2023-04-02T10:14:24.888Z,52.53
2023-04-02T10:16:55.043Z,52.63
2023-04-02T10:19:30.110Z,52.29
2023-04-02T10:22:04.224Z,50.93
2023-04-02T10:24:32.119Z,51.19
2023-04-02T10:27:17.582Z,50.91
2023-04-02T10:29:58.226Z,51.39
2023-04-02T10:32:31.446Z,51.63
2023-04-02T10:35:03.706Z,50.69
2023-04-02T10:38:04.164Z,49.57
2023-04-02T10:40:37.255Z,50.96
2023-04-02T10:43:29.252Z,48.90
2023-04-02T10:46:03.405Z,48.54
2023-04-02T10:48:40.042Z,49.27
2023-04-02T10:51:09.070Z,48.55
2023-04-02T10:53:44.142Z,50.55
2023-04-02T10:56:14.162Z,50.11
2023-04-02T10:58:55.604Z,50.79
2023-04-02T11:01:29.169Z,50.54
2023-04-02T11:04:00.146Z,49.72
2023-04-02T11:06:32.820Z,50.55
2023-04-02T11:09:05.997Z,50.09
2023-04-02T11:11:39.663Z,50.97
2023-04-02T11:14:14.825Z,50.50
2023-04-02T11:16:44.567Z,50.87
2023-04-02T11:19:25.453Z,49.64
2023-04-02T11:21:59.259Z,51.12
2023-04-02T11:24:38.432Z,50.36
2023-04-02T11:27:14.748Z,50.69
2023-04-02T11:29:44.956Z,49.80
2023-04-02T11:32:35.758Z,49.90
2023-04-02T11:35:26.511Z,49.75
2023-04-02T11:37:55.544Z,50.08
2023-04-02T11:40:46.909Z,48.77
2023-04-02T11:43:52.493Z,49.73
2023-04-02T11:46:46.635Z,49.59
2023-04-02T11:49:58.368Z,49.27
2023-04-02T11:52:29.687Z,50.25
2023-04-02T11:55:24.315Z,50.84
2023-04-02T11:58:03.592Z,50.60
2023-04-02T12:00:52.884Z,49.80
2023-04-02T12:03:43.356Z,47.63
2023-04-02T12:06:20.251Z,48.26
2023-04-02T12:08:57.918Z,49.05
2023-04-02T12:11:34.614Z,48.00
2023-04-02T12:14:28.386Z,48.86
2023-04-02T12:16:56.804Z,50.85
2023-04-02T12:19:25.732Z,49.46
2023-04-02T12:21:54.988Z,49.07
2023-04-02T12:24:24.756Z,50.00
2023-04-02T12:27:08.700Z,49.47
2023-04-02T12:29:39.107Z,50.62
2023-04-02T12:32:22.004Z,51.26
2023-04-02T12:34:52.372Z,52.41
2023-04-02T12:37:26.317Z,51.71
2023-04-02T12:39:58.858Z,52.12
2023-04-02T12:42:31.906Z,52.80
2023-04-02T12:45:01.887Z,52.09
2023-04-02T12:47:30.466Z,53.37
2023-04-02T12:50:00.658Z,53.42
2023-04-02T12:52:30.342Z,53.78
2023-04-02T12:55:00.760Z,53.47
2023-04-02T12:57:36.442Z,52.53
2023-04-02T13:00:34.216Z,51.38
2023-04-02T13:03:17.425Z,50.82
2023-04-02T13:05:47.774Z,51.16
2023-04-02T13:08:20.010Z,51.98
2023-04-02T13:10:54.092Z,51.21
2023-04-02T13:13:27.876Z,51.53
2023-04-02T13:16:24.549Z,50.79
2023-04-02T13:18:52.425Z,51.61
2023-04-02T13:21:28.326Z,52.72
2023-04-02T13:23:56.503Z,52.87
2023-04-02T13:26:27.099Z,52.97
2023-04-02T13:28:59.527Z,52.46
2023-04-02T13:31:29.677Z,53.47
2023-04-02T13:33:57.526Z,52.58
2023-04-02T13:36:25.690Z,53.64
2023-04-02T13:38:53.386Z,53.43
2023-04-02T13:41:23.771Z,52.40
2023-04-02T13:43:51.965Z,52.27
2023-04-02T13:46:23.402Z,51.09
2023-04-02T13:48:53.898Z,50.98
2023-04-02T13:51:24.762Z,51.20
2023-04-02T13:53:55.517Z,50.98
2023-04-02T13:56:24.483Z,51.36
2023-04-02T13:58:53.344Z,50.85
2023-04-02T14:01:23.948Z,52.18
2023-04-02T14:03:55.612Z,51.59
2023-04-02T14:06:36.561Z,52.21
2023-04-02T14:09:08.747Z,53.04
2023-04-02T14:11:49.103Z,51.52
2023-04-02T14:14:36.366Z,51.76
2023-04-02T14:17:16.527Z,51.52
2023-04-02T14:20:06.325Z,52.27
2023-04-02T14:22:53.118Z,52.75
2023-04-02T14:25:27.148Z,53.39
2023-04-02T14:28:03.583Z,52.92
2023-04-02T14:30:43.897Z,53.58
2023-04-02T14:33:21.929Z,53.82
2023-04-02T14:35:56.361Z,54.02
2023-04-02T14:38:31.327Z,53.95
2023-04-02T14:41:05.547Z,53.25
2023-04-02T14:43:40.845Z,53.38
2023-04-02T14:46:10.186Z,53.20
2023-04-02T14:48:52.037Z,53.50
2023-04-02T14:51:27.968Z,52.51
2023-04-02T14:54:02.933Z,53.01
2023-04-02T14:56:34.502Z,52.35
2023-04-02T14:59:18.479Z,52.16
2023-04-02T15:01:50.420Z,51.41
2023-04-02T15:04:23.871Z,51.39
2023-04-02T15:06:57.725Z,52.01
2023-04-02T15:09:33.063Z,52.06
2023-04-02T15:12:07.458Z,52.42
2023-04-02T15:14:38.269Z,52.57
2023-04-02T15:17:07.390Z,52.43
2023-04-02T15:19:35.218Z,51.53
2023-04-02T15:22:30.342Z,50.92
2023-04-02T15:25:10.942Z,52.19
2023-04-02T15:27:57.689Z,51.32
2023-04-02T15:30:28.882Z,51.47
2023-04-02T15:33:00.085Z,51.46
2023-04-02T15:35:40.055Z,51.73
2023-04-02T15:38:16.610Z,50.40
2023-04-02T15:40:58.568Z,51.16
2023-04-02T15:43:30.839Z,50.73
2023-04-02T15:46:13.309Z,50.81
2023-04-02T15:49:01.187Z,50.58
2023-04-02T15:51:40.817Z,50.78
2023-04-02T15:54:23.824Z,49.58
2023-04-02T15:57:00.613Z,50.46
2023-04-02T15:59:42.391Z,49.35
2023-04-02T16:02:32.617Z,48.40
2023-04-02T16:05:04.926Z,48.74
2023-04-02T16:07:54.329Z,48.59
2023-04-02T16:10:40.030Z,50.02
2023-04-02T16:13:18.816Z,48.63
2023-04-02T16:15:53.119Z,48.87
2023-04-02T16:18:31.347Z,49.62
2023-04-02T16:21:02.835Z,50.00
2023-04-02T16:23:35.122Z,50.43
2023-04-02T16:26:18.526Z,50.05
2023-04-02T16:28:58.378Z,49.60
2023-04-02T16:31:32.780Z,50.55
2023-04-02T16:34:06.293Z,50.19
2023-04-02T16:36:50.424Z,49.72
2023-04-02T16:39:30.724Z,50.45
2023-04-02T16:42:10.077Z,49.85
2023-04-02T16:44:50.300Z,50.25
2023-04-02T16:47:38.914Z,50.99
2023-04-02T16:50:16.475Z,51.04
2023-04-02T16:52:53.208Z,51.85
2023-04-02T16:55:31.529Z,51.00
2023-04-02T16:58:15.018Z,51.63
2023-04-02T17:00:49.313Z,52.10
2023-04-02T17:03:31.895Z,51.82
2023-04-02T17:06:05.660Z,51.48
2023-04-02T17:08:41.935Z,51.08
2023-04-02T17:11:13.575Z,51.87
2023-04-02T17:13:45.940Z,51.36
2023-04-02T17:16:20.681Z,51.87
2023-04-02T17:18:50.842Z,51.44
2023-04-02T17:21:21.630Z,51.06
2023-04-02T17:23:56.304Z,51.30
2023-04-02T17:26:28.293Z,51.34
2023-04-02T17:29:01.300Z,51.17
2023-04-02T17:31:35.253Z,52.19
2023-04-02T17:34:13.007Z,51.18
2023-04-02T17:36:49.907Z,51.88
2023-04-02T17:39:23.010Z,52.12
2023-04-02T17:41:57.077Z,52.32
2023-04-02T17:44:43.890Z,52.53
2023-04-02T17:47:20.585Z,53.79
2023-04-02T17:49:57.046Z,53.57
2023-04-02T17:52:29.212Z,54.05
2023-04-02T17:55:06.381Z,54.25
2023-04-02T17:57:50.111Z,54.22
2023-04-02T18:00:26.961Z,55.13
2023-04-02T18:03:11.657Z,54.97
2023-04-02T18:05:45.728Z,55.18
2023-04-02T18:08:25.449Z,55.66
2023-04-02T18:11:03.762Z,55.74
2023-04-02T18:13:36.122Z,55.62
2023-04-02T18:16:28.000Z,55.31
2023-04-02T18:19:08.410Z,55.93
2023-04-02T18:21:44.189Z,55.58
2023-04-02T18:24:26.606Z,55.96
2023-04-02T18:27:03.323Z,56.19
2023-04-02T18:29:38.731Z,56.61
2023-04-02T18:32:36.498Z,56.57
2023-04-02T18:35:13.003Z,56.80
2023-04-02T18:37:53.252Z,56.93
2023-04-02T18:40:37.057Z,56.88
2023-04-02T18:43:16.417Z,57.15
2023-04-02T18:45:55.689Z,57.29
2023-04-02T18:48:35.229Z,57.22
2023-04-02T18:51:04.766Z,57.52
2023-04-02T18:53:34.563Z,57.62
2023-04-02T18:56:05.445Z,57.53
2023-04-02T18:58:42.177Z,57.82
2023-04-02T19:01:13.212Z,58.10
2023-04-02T19:03:46.422Z,58.08
2023-04-02T19:06:19.718Z,57.99
2023-04-02T19:08:51.253Z,58.35
2023-04-02T19:11:27.412Z,58.50
2023-04-02T19:13:55.320Z,58.50
2023-04-02T19:16:46.100Z,58.53
2023-04-02T19:19:21.643Z,58.49
2023-04-02T19:22:10.288Z,58.52
2023-04-02T19:24:57.326Z,58.27
2023-04-02T19:27:33.179Z,58.66
2023-04-02T19:30:13.906Z,58.95
2023-04-02T19:32:48.584Z,58.94
2023-04-02T19:35:24.865Z,59.00
2023-04-02T19:37:59.966Z,59.24
2023-04-02T19:40:42.977Z,59.25
2023-04-02T19:43:11.649Z,59.36
2023-04-02T19:45:41.627Z,59.71
2023-04-02T19:48:15.677Z,59.69
2023-04-02T19:50:45.540Z,59.71
2023-04-02T19:53:14.150Z,59.57
2023-04-02T19:55:42.977Z,59.49
2023-04-02T19:58:19.595Z,59.71
2023-04-02T20:00:47.993Z,59.26
2023-04-02T20:03:15.972Z,59.48
2023-04-02T20:05:45.086Z,58.66
2023-04-02T20:08:13.179Z,58.37
2023-04-02T20:10:41.432Z,58.61
2023-04-02T20:13:10.375Z,58.65
2023-04-02T20:15:39.656Z,58.69
2023-04-02T20:18:07.654Z,58.82
2023-04-02T20:20:35.528Z,59.04
2023-04-02T20:23:04.865Z,59.09
2023-04-02T20:25:32.674Z,59.63
2023-04-02T20:28:00.880Z,59.69
2023-04-02T20:30:28.774Z,59.90
2023-04-02T20:32:59.942Z,60.50
2023-04-02T20:35:29.325Z,60.50
2023-04-02T20:37:57.474Z,61.03
2023-04-02T20:40:26.674Z,61.02
2023-04-02T20:42:54.481Z,61.53
2023-04-02T20:45:22.370Z,61.71
2023-04-02T20:47:50.238Z,61.94
2023-04-02T20:50:18.300Z,62.13
2023-04-02T20:52:46.219Z,62.42
2023-04-02T20:55:14.008Z,62.67
2023-04-02T20:57:43.142Z,62.84
2023-04-02T21:00:12.672Z,63.11
2023-04-02T21:02:40.585Z,63.20
2023-04-02T21:05:08.964Z,63.94
2023-04-02T21:07:36.813Z,63.55
2023-04-02T21:10:04.865Z,63.75
2023-04-02T21:12:32.688Z,64.00
2023-04-02T21:15:02.782Z,64.56
2023-04-02T21:17:31.081Z,65.55
2023-04-02T21:19:58.860Z,65.07
2023-04-02T21:22:26.692Z,65.05
2023-04-02T21:24:54.480Z,65.24
2023-04-02T21:27:25.625Z,64.94
2023-04-02T21:29:53.612Z,65.57
2023-04-02T21:32:22.843Z,65.79
2023-04-02T21:34:50.753Z,66.40
2023-04-02T21:37:18.597Z,66.35
2023-04-02T21:39:46.541Z,66.74
2023-04-02T21:42:15.136Z,66.17
2023-04-02T21:44:42.930Z,66.73
2023-04-02T21:47:11.034Z,66.63
2023-04-02T21:49:40.421Z,66.65
2023-04-02T21:52:08.178Z,66.58
2023-04-02T21:54:38.607Z,66.65
2023-04-02T21:57:06.479Z,67.55
2023-04-02T21:59:34.343Z,66.95
2023-04-02T22:02:02.103Z,67.71
2023-04-02T22:04:30.672Z,67.73
2023-04-02T22:07:00.142Z,68.31
2023-04-02T22:09:29.506Z,68.55
2023-04-02T22:11:59.576Z,69.29
2023-04-02T22:14:28.370Z,69.34
2023-04-02T22:16:56.306Z,68.42
2023-04-02T22:19:24.267Z,69.21
2023-04-02T22:21:53.039Z,68.96
2023-04-02T22:24:22.993Z,68.45
2023-04-02T22:26:50.972Z,68.67
2023-04-02T22:29:18.670Z,69.28
2023-04-02T22:31:47.495Z,68.87
2023-04-02T22:34:15.550Z,68.74
2023-04-02T22:36:43.340Z,68.62
2023-04-02T22:39:12.110Z,68.86
2023-04-02T22:41:41.292Z,69.50
2023-04-02T22:44:09.004Z,69.93
2023-04-02T22:46:37.114Z,69.63
2023-04-02T22:49:05.282Z,69.21
2023-04-02T22:51:33.011Z,69.62
2023-04-02T22:54:00.779Z,70.01
2023-04-02T22:56:31.899Z,70.51
2023-04-02T22:59:01.310Z,70.17
2023-04-02T23:01:31.907Z,70.08
2023-04-02T23:03:59.939Z,69.98
2023-04-02T23:06:27.931Z,69.73
2023-04-02T23:08:55.922Z,70.15
2023-04-02T23:11:25.870Z,69.51
2023-04-02T23:13:55.300Z,69.46
2023-04-02T23:16:26.928Z,69.87
2023-04-02T23:18:55.725Z,69.47
2023-04-02T23:21:24.462Z,69.54
2023-04-02T23:23:52.632Z,69.55
2023-04-02T23:26:22.650Z,69.94
2023-04-02T23:28:51.973Z,69.44
2023-04-02T23:31:21.894Z,69.72
2023-04-02T23:33:51.770Z,69.25
2023-04-02T23:36:22.784Z,69.55
2023-04-02T23:38:54.861Z,69.28
2023-04-02T23:41:23.918Z,69.43
2023-04-02T23:43:52.115Z,69.35
2023-04-02T23:46:20.558Z,69.03
2023-04-02T23:48:52.334Z,69.54
2023-04-02T23:51:23.067Z,69.60
2023-04-02T23:53:50.935Z,70.08
2023-04-02T23:56:18.937Z,69.30
2023-04-02T23:58:46.707Z,69.23
